Time;durP1;ratioP1;P1;durP2;ratioP2;P2;SDS_P1;SDS_P2;PMS_P1;PMS_P2;Temp;Humidity;BMP_temperature;BMP_pressure;BME280_temperature;BME280_humidity;BME280_pressure;Samples;Min_cycle;Max_cycle;Signal;HPM_P1;HPM_P2
2021/06/30 00:02:19;;;;;;;10.35;7.63;;;20.40;82.60;;;;;;5072730;28;20407;-77
2021/06/30 00:04:45;;;;;;;13.82;7.10;;;20.40;82.70;;;;;;5072574;28;20025;-78
2021/06/30 00:07:11;;;;;;;14.73;7.22;;;20.30;82.80;;;;;;5072429;28;20024;-78
2021/06/30 00:09:38;;;;;;;11.23;7.13;;;20.30;83.00;;;;;;5072519;28;20078;-78
2021/06/30 00:12:04;;;;;;;11.85;7.28;;;20.30;83.10;;;;;;5072488;28;20056;-78
2021/06/30 00:14:29;;;;;;;13.45;7.15;;;20.30;83.20;;;;;;5054383;28;20376;-79
2021/06/30 00:16:56;;;;;;;14.13;7.03;;;20.20;83.00;;;;;;5072508;28;20070;-78
2021/06/30 00:19:25;;;;;;;9.93;6.75;;;20.20;83.20;;;;;;5072404;28;20082;-78
2021/06/30 00:21:50;;;;;;;9.65;6.88;;;20.20;83.20;;;;;;5072295;28;20066;-77
2021/06/30 00:24:16;;;;;;;9.48;6.90;;;20.20;83.00;;;;;;5072520;28;20029;-79
2021/06/30 00:26:42;;;;;;;8.60;7.10;;;20.10;82.80;;;;;;5072177;28;20382;-78
2021/06/30 00:29:08;;;;;;;11.52;6.70;;;20.10;82.80;;;;;;5072394;28;20023;-78
2021/06/30 00:31:35;;;;;;;10.10;6.78;;;20.10;82.90;;;;;;5073095;28;20060;-80
2021/06/30 00:34:04;;;;;;;10.82;7.47;;;20.10;82.90;;;;;;5074523;28;20050;-80
2021/06/30 00:36:34;;;;;;;13.07;7.13;;;20.10;82.80;;;;;;5077413;28;20013;-80
2021/06/30 00:39:01;;;;;;;13.77;7.13;;;20.10;82.70;;;;;;5077098;28;20567;-80
2021/06/30 00:41:28;;;;;;;16.55;7.57;;;20.00;82.60;;;;;;5076963;28;20028;-79
2021/06/30 00:43:54;;;;;;;11.02;7.53;;;20.00;82.60;;;;;;5076611;28;20037;-79
2021/06/30 00:46:28;;;;;;;11.45;7.13;;;20.00;82.70;;;;;;5076850;28;20029;-79
2021/06/30 00:48:55;;;;;;;10.50;7.32;;;20.00;82.70;;;;;;5076644;28;20024;-80
2021/06/30 00:51:22;;;;;;;12.60;6.75;;;19.90;82.60;;;;;;5076386;28;20052;-80
2021/06/30 00:53:48;;;;;;;11.90;6.82;;;19.90;82.60;;;;;;5076501;28;20127;-80
2021/06/30 00:56:14;;;;;;;8.65;6.45;;;19.90;82.80;;;;;;5076815;28;20024;-80
2021/06/30 00:58:40;;;;;;;9.85;6.15;;;19.80;82.70;;;;;;5076761;28;20033;-80
2021/06/30 01:01:06;;;;;;;12.13;6.43;;;19.90;82.80;;;;;;5076452;28;20462;-79
2021/06/30 01:03:32;;;;;;;11.20;5.60;;;19.80;82.70;;;;;;5076172;28;20024;-79
2021/06/30 01:05:58;;;;;;;9.20;6.72;;;19.80;82.50;;;;;;5075384;28;20028;-78
2021/06/30 01:08:24;;;;;;;10.60;6.43;;;19.80;82.40;;;;;;5075581;28;20029;-78
2021/06/30 01:10:49;;;;;;;10.20;6.05;;;19.80;82.40;;;;;;5075417;28;20044;-78
2021/06/30 01:13:15;;;;;;;13.75;6.32;;;19.70;82.30;;;;;;5075308;28;20031;-77
2021/06/30 01:15:45;;;;;;;12.73;7.00;;;19.80;82.30;;;;;;5075350;28;20086;-79
2021/06/30 01:18:11;;;;;;;11.13;6.03;;;19.80;82.40;;;;;;5075155;28;20032;-77
2021/06/30 01:20:37;;;;;;;14.27;6.85;;;19.80;82.30;;;;;;5075232;28;20017;-79
2021/06/30 01:23:13;;;;;;;14.15;6.50;;;19.70;82.30;;;;;;5075247;28;20028;-78
2021/06/30 01:25:39;;;;;;;8.40;6.30;;;19.70;82.30;;;;;;5075033;28;20032;-77
2021/06/30 01:28:04;;;;;;;12.27;6.63;;;19.70;82.30;;;;;;5075014;28;20031;-78
2021/06/30 01:30:31;;;;;;;13.82;6.68;;;19.70;82.20;;;;;;5075133;28;20031;-79
2021/06/30 01:32:56;;;;;;;11.52;6.95;;;19.70;82.20;;;;;;5075006;28;20459;-77
2021/06/30 01:35:23;;;;;;;13.70;6.88;;;19.70;82.30;;;;;;5075201;28;20077;-78
2021/06/30 01:37:49;;;;;;;9.63;6.45;;;19.60;82.10;;;;;;5075046;28;20066;-78
2021/06/30 01:40:16;;;;;;;8.90;5.93;;;19.70;82.10;;;;;;5074754;28;20025;-78
2021/06/30 01:42:43;;;;;;;11.95;6.53;;;19.60;81.90;;;;;;5074713;28;20027;-78
2021/06/30 01:45:10;;;;;;;11.18;6.93;;;19.70;81.80;;;;;;5073558;28;20036;-78
2021/06/30 01:47:35;;;;;;;8.77;6.30;;;19.60;81.50;;;;;;5074471;28;20028;-78
2021/06/30 01:50:01;;;;;;;8.77;6.10;;;19.70;81.40;;;;;;5074992;28;20025;-79
2021/06/30 01:52:29;;;;;;;8.05;5.80;;;19.70;81.40;;;;;;5056797;28;20395;-78
2021/06/30 01:54:55;;;;;;;7.28;5.93;;;19.70;81.40;;;;;;5074572;28;20534;-78
2021/06/30 01:57:21;;;;;;;8.95;5.80;;;19.70;81.20;;;;;;5074777;28;20043;-78
2021/06/30 01:59:46;;;;;;;9.73;6.25;;;19.80;81.00;;;;;;5074574;28;20474;-78
2021/06/30 02:02:12;;;;;;;9.85;6.40;;;19.80;80.90;;;;;;5074423;28;20479;-78
2021/06/30 02:04:39;;;;;;;8.55;6.15;;;19.80;80.70;;;;;;5074746;28;20917;-79
2021/06/30 02:07:05;;;;;;;13.32;6.88;;;19.80;80.40;;;;;;5074636;28;20089;-79
2021/06/30 02:09:31;;;;;;;12.20;6.20;;;19.90;80.70;;;;;;5074191;28;20086;-78
2021/06/30 02:11:58;;;;;;;11.15;6.00;;;20.20;81.00;;;;;;5074401;28;20027;-78
2021/06/30 02:14:24;;;;;;;6.60;5.43;;;20.50;80.20;;;;;;5074564;28;20418;-78
2021/06/30 02:16:50;;;;;;;5.80;5.10;;;21.10;79.20;;;;;;5074284;28;20043;-78
2021/06/30 02:19:17;;;;;;;11.40;5.80;;;21.70;77.60;;;;;;5075206;28;20028;-79
2021/06/30 02:21:43;;;;;;;9.48;5.70;;;22.30;76.10;;;;;;5075266;28;20021;-79
2021/06/30 02:24:09;;;;;;;10.40;6.60;;;23.00;74.30;;;;;;5075470;28;20021;-79
2021/06/30 02:26:36;;;;;;;12.05;7.85;;;23.60;72.90;;;;;;5075679;28;20024;-79
2021/06/30 02:29:03;;;;;;;13.68;7.65;;;24.20;71.40;;;;;;5075302;28;20025;-79
2021/06/30 02:31:29;;;;;;;13.00;7.97;;;24.80;69.60;;;;;;5086227;28;20013;-79
2021/06/30 02:33:55;;;;;;;9.30;7.55;;;25.50;68.00;;;;;;5087885;28;20024;-79
2021/06/30 02:36:21;;;;;;;12.60;7.78;;;26.10;66.60;;;;;;5078801;28;20437;-80
2021/06/30 02:38:48;;;;;;;11.25;6.90;;;26.70;65.10;;;;;;5075221;28;20028;-80
2021/06/30 02:41:14;;;;;;;13.98;7.28;;;27.30;63.50;;;;;;5075713;28;20025;-80
2021/06/30 02:43:41;;;;;;;10.68;7.20;;;27.90;61.80;;;;;;5075439;28;20029;-80
2021/06/30 02:46:07;;;;;;;9.40;7.78;;;28.60;60.80;;;;;;5074714;28;20111;-80
2021/06/30 02:48:33;;;;;;;8.75;7.43;;;29.20;59.60;;;;;;5056551;28;20123;-80
2021/06/30 02:50:59;;;;;;;10.27;7.30;;;29.70;58.00;;;;;;5074346;28;20151;-79
2021/06/30 02:53:25;;;;;;;11.98;7.47;;;30.30;56.60;;;;;;5074306;28;20040;-79
2021/06/30 02:55:50;;;;;;;12.80;6.82;;;30.80;55.60;;;;;;5074550;28;20031;-80
2021/06/30 02:58:16;;;;;;;10.23;5.78;;;31.50;54.60;;;;;;5074211;28;20020;-80
2021/06/30 03:00:42;;;;;;;8.73;5.13;;;32.10;53.20;;;;;;5056452;28;20025;-80
2021/06/30 03:03:08;;;;;;;7.97;6.20;;;32.70;51.80;;;;;;5073898;28;20024;-80
2021/06/30 03:05:34;;;;;;;8.93;5.72;;;33.40;51.00;;;;;;5074025;28;20433;-80
2021/06/30 03:08:00;;;;;;;8.85;5.70;;;34.00;49.70;;;;;;5073817;28;20467;-80
2021/06/30 03:10:27;;;;;;;15.70;8.85;;;34.70;48.60;;;;;;5073172;28;20086;-79
2021/06/30 03:12:53;;;;;;;5.90;4.80;;;35.30;47.60;;;;;;5055306;28;20077;-79
2021/06/30 03:15:19;;;;;;;5.20;4.57;;;35.80;46.50;;;;;;5072658;28;20020;-79
2021/06/30 03:17:44;;;;;;;8.65;4.20;;;36.20;45.30;;;;;;5072778;28;20021;-79
2021/06/30 03:20:14;;;;;;;7.90;4.40;;;36.70;44.30;;;;;;5054951;28;20023;-79
2021/06/30 03:22:41;;;;;;;7.87;4.50;;;37.10;43.40;;;;;;5072785;28;20017;-78
2021/06/30 03:25:11;;;;;;;7.18;3.90;;;37.30;43.00;;;;;;5072535;28;20021;-78
2021/06/30 03:27:38;;;;;;;10.98;4.50;;;37.70;42.00;;;;;;5072319;28;20108;-79
2021/06/30 03:30:05;;;;;;;9.05;4.30;;;38.10;41.90;;;;;;5072496;28;20032;-77
2021/06/30 03:32:31;;;;;;;4.97;3.90;;;38.40;41.30;;;;;;5072811;28;20021;-78
2021/06/30 03:34:57;;;;;;;5.88;3.78;;;38.70;40.90;;;;;;5072665;28;20036;-78
2021/06/30 03:37:23;;;;;;;5.95;3.83;;;39.10;40.30;;;;;;5072656;28;20135;-78
2021/06/30 03:39:49;;;;;;;8.98;4.68;;;39.50;39.90;;;;;;5054661;28;20474;-77
2021/06/30 03:42:15;;;;;;;6.50;4.05;;;39.90;39.40;;;;;;5072355;28;20025;-77
2021/06/30 03:44:41;;;;;;;5.18;4.50;;;40.20;38.90;;;;;;5071565;28;20444;-77
2021/06/30 03:47:06;;;;;;;7.18;4.07;;;40.40;38.40;;;;;;5072020;28;20099;-77
2021/06/30 03:49:32;;;;;;;7.10;4.22;;;40.60;38.40;;;;;;5072557;28;20504;-78
2021/06/30 03:51:59;;;;;;;10.25;4.85;;;40.80;38.30;;;;;;5072172;28;20031;-78
2021/06/30 03:54:25;;;;;;;14.20;4.93;;;40.90;38.30;;;;;;5072388;28;20147;-79
2021/06/30 03:56:52;;;;;;;5.15;4.72;;;41.00;38.40;;;;;;5072500;28;20459;-79
2021/06/30 03:59:18;;;;;;;9.43;6.20;;;41.10;38.20;;;;;;5072100;28;20379;-80
2021/06/30 04:01:43;;;;;;;6.63;5.22;;;41.10;38.90;;;;;;5072353;28;20016;-79
2021/06/30 04:04:12;;;;;;;8.27;5.70;;;41.10;38.10;;;;;;5072560;28;20082;-79
2021/06/30 04:06:38;;;;;;;8.10;5.80;;;41.10;38.20;;;;;;5072143;28;20017;-79
2021/06/30 04:09:04;;;;;;;11.82;5.13;;;41.10;38.20;;;;;;5053337;28;20039;-78
2021/06/30 04:11:30;;;;;;;9.90;6.10;;;41.30;38.40;;;;;;5054301;28;20109;-81
2021/06/30 04:13:56;;;;;;;7.30;5.25;;;41.50;38.10;;;;;;5072079;28;20112;-79
2021/06/30 04:16:22;;;;;;;7.47;5.10;;;41.60;37.90;;;;;;5072094;28;20021;-78
2021/06/30 04:18:48;;;;;;;8.10;5.53;;;41.70;37.70;;;;;;5053576;28;20483;-78
2021/06/30 04:21:13;;;;;;;7.93;5.50;;;41.60;37.50;;;;;;5071576;28;20033;-78
2021/06/30 04:23:39;;;;;;;11.40;6.57;;;41.60;37.50;;;;;;5071425;28;20112;-79
2021/06/30 04:26:05;;;;;;;9.68;4.80;;;41.60;37.60;;;;;;5053424;28;20501;-79
2021/06/30 04:28:31;;;;;;;11.60;5.15;;;41.70;37.40;;;;;;5071928;28;20438;-79
2021/06/30 04:30:57;;;;;;;10.80;5.00;;;42.10;37.30;;;;;;5071561;28;20021;-79
2021/06/30 04:33:23;;;;;;;11.65;6.78;;;42.50;37.30;;;;;;5072587;28;20025;-81
2021/06/30 04:35:49;;;;;;;7.32;4.85;;;42.90;37.00;;;;;;5072683;28;20036;-80
2021/06/30 04:38:14;;;;;;;6.00;4.75;;;43.20;36.60;;;;;;5072694;28;20031;-79
2021/06/30 04:40:40;;;;;;;6.82;4.53;;;43.60;36.40;;;;;;5072162;28;20062;-80
2021/06/30 04:43:06;;;;;;;6.45;4.90;;;44.00;36.10;;;;;;5072699;28;20032;-80
2021/06/30 04:45:32;;;;;;;5.57;5.05;;;44.40;35.90;;;;;;5072564;28;20037;-81
2021/06/30 04:47:57;;;;;;;7.72;6.25;;;44.70;35.60;;;;;;5072114;28;20103;-78
2021/06/30 04:50:23;;;;;;;10.82;6.18;;;45.10;35.30;;;;;;5071542;28;20033;-79
2021/06/30 04:52:49;;;;;;;6.72;5.32;;;45.30;35.00;;;;;;5071308;28;20029;-79
2021/06/30 04:55:15;;;;;;;8.10;5.72;;;45.70;34.70;;;;;;5071505;28;20040;-79
2021/06/30 04:57:40;;;;;;;10.48;5.18;;;45.90;34.50;;;;;;5071193;28;20115;-80
2021/06/30 05:00:08;;;;;;;8.13;5.95;;;46.20;34.40;;;;;;5071430;28;20025;-79
2021/06/30 05:02:35;;;;;;;10.77;5.15;;;46.40;34.00;;;;;;5071461;28;20031;-80
2021/06/30 05:05:01;;;;;;;7.90;5.10;;;46.60;33.90;;;;;;5071662;28;20017;-79
2021/06/30 05:07:27;;;;;;;9.23;4.88;;;46.80;33.70;;;;;;5071472;28;20029;-81
2021/06/30 05:09:53;;;;;;;7.97;5.03;;;47.00;33.40;;;;;;5072138;28;20025;-81
2021/06/30 05:12:18;;;;;;;8.05;5.40;;;47.20;33.20;;;;;;5072380;28;20024;-81
2021/06/30 05:14:44;;;;;;;5.88;5.38;;;47.40;33.00;;;;;;5072325;28;20021;-81
2021/06/30 05:17:10;;;;;;;8.52;5.70;;;47.60;32.90;;;;;;5071816;28;20021;-81
2021/06/30 05:19:36;;;;;;;6.95;5.25;;;47.80;32.70;;;;;;5071859;28;20058;-81
2021/06/30 05:22:03;;;;;;;9.75;5.43;;;47.90;32.50;;;;;;5076229;28;20063;-80
2021/06/30 05:24:28;;;;;;;7.47;5.65;;;48.10;32.30;;;;;;5057365;28;20120;-80
2021/06/30 05:26:54;;;;;;;6.90;6.18;;;48.30;32.10;;;;;;5075172;28;20514;-81
2021/06/30 05:29:20;;;;;;;6.38;5.20;;;48.40;32.00;;;;;;5074717;28;20090;-80
2021/06/30 05:31:45;;;;;;;13.18;5.40;;;48.40;31.80;;;;;;5074889;28;20029;-80
2021/06/30 05:34:11;;;;;;;9.35;5.93;;;48.60;31.90;;;;;;5074990;28;20021;-81
2021/06/30 05:36:37;;;;;;;10.60;5.88;;;48.60;31.80;;;;;;5074417;28;20051;-77
2021/06/30 05:39:03;;;;;;;8.15;5.65;;;48.80;31.70;;;;;;5074236;28;20021;-79
2021/06/30 05:41:29;;;;;;;11.05;6.78;;;48.90;31.60;;;;;;5073692;28;20028;-79
2021/06/30 05:43:54;;;;;;;5.25;4.82;;;49.00;31.50;;;;;;5074538;28;20112;-79
2021/06/30 05:46:20;;;;;;;6.20;5.70;;;49.00;31.20;;;;;;5074094;28;20467;-78
2021/06/30 05:48:46;;;;;;;7.72;4.63;;;49.10;31.10;;;;;;5043796;28;20033;-78
2021/06/30 05:51:13;;;;;;;5.30;4.78;;;49.00;31.00;;;;;;5053832;28;20021;-79
2021/06/30 05:53:39;;;;;;;8.10;5.75;;;49.00;30.90;;;;;;5053927;28;20072;-79
2021/06/30 05:56:06;;;;;;;5.13;4.63;;;49.00;31.00;;;;;;5054418;28;20074;-79
2021/06/30 05:58:32;;;;;;;4.30;4.00;;;49.10;30.80;;;;;;5054025;28;20510;-79
2021/06/30 06:00:58;;;;;;;6.32;4.05;;;49.10;30.80;;;;;;5054038;28;20029;-80
2021/06/30 06:03:23;;;;;;;4.78;4.30;;;49.00;30.40;;;;;;5052219;28;20507;-80
2021/06/30 06:05:49;;;;;;;8.68;4.95;;;49.00;30.40;;;;;;5053889;28;20029;-79
2021/06/30 06:08:15;;;;;;;5.18;4.68;;;49.10;30.40;;;;;;5053735;28;20433;-79
2021/06/30 06:10:41;;;;;;;4.30;4.00;;;49.10;30.50;;;;;;5054108;28;20027;-79
2021/06/30 06:13:07;;;;;;;8.65;4.65;;;49.10;30.30;;;;;;5054015;28;20025;-78
2021/06/30 06:15:34;;;;;;;8.60;5.28;;;49.00;30.70;;;;;;5053586;28;20079;-79
2021/06/30 06:17:59;;;;;;;5.35;4.00;;;48.90;30.70;;;;;;5054137;28;20031;-79
2021/06/30 06:20:25;;;;;;;5.32;4.20;;;48.80;30.50;;;;;;5054070;28;20021;-79
2021/06/30 06:22:51;;;;;;;5.55;4.22;;;48.70;30.40;;;;;;5053837;28;20033;-79
2021/06/30 06:25:16;;;;;;;11.20;4.22;;;48.70;30.80;;;;;;5053751;28;20021;-78
2021/06/30 06:27:42;;;;;;;6.70;4.38;;;48.60;31.00;;;;;;5053299;28;20032;-80
2021/06/30 06:30:09;;;;;;;5.43;4.47;;;48.60;30.80;;;;;;5053387;28;20060;-79
2021/06/30 06:32:35;;;;;;;5.07;3.60;;;48.60;30.80;;;;;;5053370;28;20024;-79
2021/06/30 06:35:02;;;;;;;7.70;4.03;;;48.50;30.70;;;;;;5053553;28;20021;-80
2021/06/30 06:37:29;;;;;;;5.15;4.65;;;48.40;30.50;;;;;;5053969;28;20357;-80
2021/06/30 06:39:55;;;;;;;10.38;4.43;;;48.40;30.70;;;;;;5054313;28;20035;-80
2021/06/30 06:42:21;;;;;;;9.95;5.25;;;48.40;30.70;;;;;;5053340;28;20544;-80
2021/06/30 06:44:46;;;;;;;9.20;4.32;;;48.40;30.60;;;;;;5052792;28;20059;-80
2021/06/30 06:47:12;;;;;;;10.38;4.45;;;48.40;30.70;;;;;;5035186;28;20025;-78
2021/06/30 06:49:38;;;;;;;8.02;3.90;;;48.30;30.70;;;;;;5053314;28;20053;-78
2021/06/30 06:52:04;;;;;;;5.32;4.13;;;48.30;30.70;;;;;;5052972;28;20029;-78
2021/06/30 06:54:30;;;;;;;7.07;4.35;;;48.30;30.70;;;;;;5034852;28;20055;-78
2021/06/30 06:56:56;;;;;;;9.02;4.15;;;48.20;30.60;;;;;;5052920;28;20033;-79
2021/06/30 06:59:22;;;;;;;7.85;4.45;;;48.20;30.80;;;;;;5052587;28;20025;-79
2021/06/30 07:01:47;;;;;;;5.65;4.28;;;48.10;30.80;;;;;;5053112;28;20071;-81
2021/06/30 07:04:13;;;;;;;14.50;10.05;;;48.00;30.70;;;;;;5052922;28;20033;-80
2021/06/30 07:06:39;;;;;;;7.13;4.45;;;48.00;30.90;;;;;;5052926;28;20407;-80
2021/06/30 07:09:06;;;;;;;6.45;4.65;;;48.00;31.00;;;;;;5052505;28;20518;-80
2021/06/30 07:11:32;;;;;;;6.15;4.70;;;47.90;30.90;;;;;;5053060;28;20196;-80
2021/06/30 07:13:58;;;;;;;4.88;3.80;;;47.80;30.80;;;;;;5053126;28;20504;-80
2021/06/30 07:16:23;;;;;;;8.73;5.05;;;47.60;30.60;;;;;;5052964;28;20426;-80
2021/06/30 07:18:49;;;;;;;4.18;3.08;;;47.50;30.80;;;;;;5052862;28;20384;-79
2021/06/30 07:21:15;;;;;;;6.70;4.30;;;47.00;30.50;;;;;;5052247;28;20111;-78
2021/06/30 07:23:40;;;;;;;6.72;3.80;;;46.80;30.80;;;;;;5052990;28;20057;-82
2021/06/30 07:26:09;;;;;;;4.18;3.70;;;46.60;31.30;;;;;;5052909;28;20078;-83
2021/06/30 07:28:34;;;;;;;6.45;4.28;;;46.40;31.40;;;;;;5052249;28;20025;-82
2021/06/30 07:31:00;;;;;;;4.50;4.10;;;46.20;31.50;;;;;;5052743;28;20025;-83
2021/06/30 07:33:26;;;;;;;4.63;4.20;;;46.10;31.60;;;;;;5052985;28;20021;-84
2021/06/30 07:35:51;;;;;;;10.52;7.57;;;46.00;31.70;;;;;;5035278;28;20028;-85
2021/06/30 07:38:17;;;;;;;9.02;3.80;;;45.90;32.10;;;;;;5052440;28;20065;-83
2021/06/30 07:40:43;;;;;;;8.48;4.55;;;45.70;32.40;;;;;;5052023;28;20067;-82
2021/06/30 07:43:09;;;;;;;9.07;4.30;;;45.60;32.60;;;;;;5050907;28;20057;-83
2021/06/30 07:45:35;;;;;;;5.75;4.30;;;45.50;32.80;;;;;;5051540;28;20443;-80
2021/06/30 07:48:00;;;;;;;6.32;5.10;;;45.30;32.90;;;;;;5051623;28;20083;-79
2021/06/30 07:50:27;;;;;;;7.20;4.68;;;45.00;32.90;;;;;;5051781;28;20133;-80
2021/06/30 07:52:52;;;;;;;8.02;4.97;;;44.80;33.20;;;;;;5051613;28;20159;-79
2021/06/30 07:55:20;;;;;;;4.63;4.18;;;44.70;33.60;;;;;;5051717;28;20502;-78
2021/06/30 07:57:46;;;;;;;5.25;4.55;;;44.60;33.60;;;;;;5051885;28;20040;-79
2021/06/30 08:00:12;;;;;;;6.85;4.28;;;44.20;33.50;;;;;;5051258;28;20025;-79
2021/06/30 08:02:39;;;;;;;7.07;3.97;;;43.90;33.50;;;;;;5051338;28;20137;-78
2021/06/30 08:05:06;;;;;;;4.35;3.95;;;43.40;33.80;;;;;;5051359;28;20056;-79
2021/06/30 08:07:32;;;;;;;6.60;4.45;;;43.00;33.90;;;;;;5050931;28;20032;-79
2021/06/30 08:09:58;;;;;;;4.47;3.70;;;42.60;34.10;;;;;;5051459;28;20017;-79
2021/06/30 08:12:24;;;;;;;5.97;4.38;;;42.00;34.50;;;;;;5033087;28;20029;-79
2021/06/30 08:14:50;;;;;;;6.60;4.20;;;41.50;35.30;;;;;;5051206;28;20029;-80
2021/06/30 08:17:16;;;;;;;5.65;4.10;;;41.10;35.50;;;;;;5051162;28;20025;-80
2021/06/30 08:19:42;;;;;;;6.15;4.03;;;40.60;35.90;;;;;;5051154;28;20377;-80
2021/06/30 08:22:10;;;;;;;11.07;4.45;;;40.10;36.10;;;;;;5050937;28;20178;-80
2021/06/30 08:24:41;;;;;;;7.10;4.57;;;39.80;36.90;;;;;;5051293;28;20017;-79
2021/06/30 08:27:08;;;;;;;4.97;4.50;;;39.50;37.20;;;;;;5051092;28;20110;-79
2021/06/30 08:29:37;;;;;;;9.07;5.55;;;39.30;37.10;;;;;;5051321;28;20494;-83
2021/06/30 08:32:04;;;;;;;6.68;4.32;;;39.00;37.80;;;;;;5051364;28;20052;-80
2021/06/30 08:34:30;;;;;;;5.07;4.57;;;38.60;37.80;;;;;;5051204;28;20063;-80
2021/06/30 08:37:05;;;;;;;34.38;11.30;;;38.40;38.10;;;;;;5051087;28;20096;-80
2021/06/30 08:39:30;;;;;;;28.30;10.95;;;38.30;39.00;;;;;;5050918;28;20025;-81
2021/06/30 08:41:56;;;;;;;6.97;5.38;;;38.10;39.30;;;;;;5050988;28;20020;-81
2021/06/30 08:44:22;;;;;;;23.02;7.95;;;38.00;39.50;;;;;;5051124;28;20071;-81
2021/06/30 08:46:49;;;;;;;7.15;6.10;;;37.80;39.60;;;;;;5050990;28;20494;-81
2021/06/30 08:49:18;;;;;;;7.70;5.00;;;37.50;39.60;;;;;;5050815;28;20155;-81
2021/06/30 08:51:45;;;;;;;6.72;4.72;;;37.50;39.80;;;;;;5050698;28;20029;-81
2021/06/30 08:54:12;;;;;;;5.13;4.63;;;37.50;39.90;;;;;;5050699;28;20128;-79
2021/06/30 08:56:40;;;;;;;11.60;5.20;;;37.50;39.80;;;;;;5054280;28;20028;-81
2021/06/30 08:59:06;;;;;;;9.50;5.78;;;37.50;40.30;;;;;;5054362;28;20029;-81
2021/06/30 09:01:33;;;;;;;8.40;5.78;;;37.30;40.50;;;;;;5054103;28;20460;-81
2021/06/30 09:04:00;;;;;;;7.05;4.75;;;37.20;40.60;;;;;;5053943;28;20036;-80
2021/06/30 09:06:27;;;;;;;9.98;5.25;;;37.10;40.80;;;;;;5054229;28;20070;-80
2021/06/30 09:08:54;;;;;;;25.75;5.35;;;37.10;41.00;;;;;;5036142;28;20029;-81
2021/06/30 09:11:21;;;;;;;8.80;5.00;;;36.90;41.20;;;;;;5054001;28;20053;-80
2021/06/30 09:13:49;;;;;;;7.97;5.28;;;36.90;41.70;;;;;;5053830;28;20036;-81
2021/06/30 09:16:15;;;;;;;6.82;5.53;;;36.80;41.80;;;;;;5054077;28;20456;-79
2021/06/30 09:18:41;;;;;;;8.57;5.43;;;36.80;41.90;;;;;;5054235;28;20029;-80
2021/06/30 09:21:23;;;;;;;8.35;5.10;;;36.70;41.80;;;;;;5053864;28;20404;-86
2021/06/30 09:24:18;;;;;;;7.57;5.00;;;36.60;41.90;;;;;;5054031;28;20108;-81
2021/06/30 09:26:53;;;;;;;7.03;5.10;;;36.40;41.90;;;;;;5053950;28;20025;-79
2021/06/30 09:29:21;;;;;;;5.90;5.40;;;36.20;41.60;;;;;;5053760;28;20021;-78
2021/06/30 09:31:49;;;;;;;5.90;5.40;;;36.20;42.00;;;;;;5053912;28;20428;-80
2021/06/30 09:34:26;;;;;;;6.45;5.50;;;36.10;42.30;;;;;;5053892;28;20482;-78
2021/06/30 09:36:57;;;;;;;11.02;5.25;;;36.00;42.70;;;;;;5053997;28;20035;-79
2021/06/30 09:39:24;;;;;;;7.93;5.30;;;35.90;42.50;;;;;;5053646;28;20120;-80
2021/06/30 09:42:01;;;;;;;6.43;4.30;;;35.80;42.50;;;;;;5053818;28;20060;-81
2021/06/30 09:44:27;;;;;;;9.77;5.53;;;35.80;42.70;;;;;;5053502;28;20394;-81
2021/06/30 09:46:54;;;;;;;5.97;4.55;;;35.60;42.90;;;;;;5064777;28;20471;-88
2021/06/30 09:49:21;;;;;;;7.15;4.38;;;35.30;43.00;;;;;;5055494;28;20036;-84
2021/06/30 09:52:07;;;;;;;6.30;4.38;;;35.10;43.30;;;;;;5073438;28;20410;-81
2021/06/30 09:54:34;;;;;;;5.18;4.68;;;34.60;43.90;;;;;;5074485;28;20131;-83
2021/06/30 09:57:06;;;;;;;6.45;4.47;;;34.40;44.50;;;;;;5075257;28;20025;-83
2021/06/30 09:59:36;;;;;;;6.60;4.30;;;34.30;45.10;;;;;;5075925;28;20095;-83
2021/06/30 10:02:17;;;;;;;6.80;4.20;;;34.20;45.30;;;;;;5074505;28;20020;-83
2021/06/30 10:04:45;;;;;;;7.63;5.22;;;34.10;45.10;;;;;;5074681;28;20025;-82
2021/06/30 10:07:26;;;;;;;7.85;4.57;;;33.80;45.10;;;;;;5072379;28;20037;-78
2021/06/30 10:10:05;;;;;;;7.05;4.22;;;33.30;45.70;;;;;;5054961;28;20021;-80
2021/06/30 10:12:33;;;;;;;7.10;4.88;;;32.80;46.20;;;;;;5073276;28;20392;-78
2021/06/30 10:15:00;;;;;;;6.80;5.28;;;32.40;46.40;;;;;;5073175;28;20013;-78
2021/06/30 10:17:26;;;;;;;4.80;4.40;;;32.30;47.30;;;;;;5073001;28;20922;-79
2021/06/30 10:19:55;;;;;;;5.68;5.05;;;32.30;47.50;;;;;;5073106;28;20035;-79
2021/06/30 10:22:26;;;;;;;4.70;4.30;;;32.50;47.50;;;;;;5073152;28;20032;-79
2021/06/30 10:24:53;;;;;;;6.55;4.93;;;32.60;47.30;;;;;;5073757;28;20024;-82
2021/06/30 10:27:19;;;;;;;6.55;4.80;;;32.90;47.50;;;;;;5080253;28;20035;-83
2021/06/30 10:29:53;;;;;;;5.30;4.20;;;33.00;47.10;;;;;;5079753;28;20092;-81
2021/06/30 10:32:19;;;;;;;6.03;4.30;;;33.10;47.00;;;;;;5072926;28;20423;-79
2021/06/30 10:34:51;;;;;;;5.38;4.20;;;33.20;47.10;;;;;;5073195;28;20419;-79
2021/06/30 10:37:23;;;;;;;8.35;5.10;;;33.20;46.80;;;;;;5073297;28;20100;-82
2021/06/30 10:39:56;;;;;;;6.90;4.43;;;33.00;46.70;;;;;;5073279;28;20020;-82
2021/06/30 10:42:38;;;;;;;8.95;5.32;;;32.90;46.80;;;;;;5072969;28;20033;-82
2021/06/30 10:45:24;;;;;;;6.15;5.15;;;32.70;46.90;;;;;;5072885;28;20035;-80
2021/06/30 10:48:02;;;;;;;7.15;4.45;;;32.70;47.50;;;;;;5072920;28;20035;-82
2021/06/30 10:50:34;;;;;;;5.30;4.78;;;32.70;47.50;;;;;;5073430;28;20020;-84
2021/06/30 10:53:02;;;;;;;4.70;4.30;;;32.70;47.20;;;;;;5054861;28;20064;-83
2021/06/30 10:55:40;;;;;;;6.15;4.60;;;32.80;47.40;;;;;;5053973;28;20028;-81
2021/06/30 11:00:54;;;;;;;7.85;4.72;;;32.80;47.40;;;;;;5073404;28;20471;-86
2021/06/30 11:03:30;;;;;;;6.63;4.50;;;32.70;47.40;;;;;;5072889;28;20140;-82
2021/06/30 11:06:14;;;;;;;5.18;4.60;;;32.70;47.80;;;;;;5072491;28;20509;-83
2021/06/30 11:09:01;;;;;;;5.68;4.88;;;32.80;47.70;;;;;;5054420;28;20132;-82
2021/06/30 11:11:27;;;;;;;6.75;4.53;;;32.80;47.30;;;;;;5054987;28;20044;-82
2021/06/30 11:14:08;;;;;;;5.40;4.90;;;32.80;47.30;;;;;;5072505;28;20150;-82
2021/06/30 11:16:48;;;;;;;7.90;4.90;;;32.90;47.40;;;;;;5072416;28;20168;-82
2021/06/30 11:19:20;;;;;;;9.50;5.40;;;32.90;47.50;;;;;;5072119;28;20028;-82
2021/06/30 11:22:07;;;;;;;7.03;4.90;;;32.90;47.60;;;;;;5073337;28;20035;-82
2021/06/30 11:25:06;;;;;;;6.78;5.72;;;33.00;47.40;;;;;;5055030;28;20379;-81
2021/06/30 11:27:38;;;;;;;;;;;33.00;47.20;;;;;;5069594;28;20071;-83
2021/06/30 11:30:08;;;;;;;10.70;5.10;;;33.00;47.00;;;;;;5072228;28;19943;-82
2021/06/30 11:32:37;;;;;;;7.65;4.22;;;33.00;47.10;;;;;;5072115;28;20084;-82
2021/06/30 11:35:09;;;;;;;5.75;5.25;;;33.10;46.70;;;;;;5072377;28;20467;-83
2021/06/30 11:37:35;;;;;;;9.15;4.70;;;33.10;46.50;;;;;;5072261;28;20028;-82
2021/06/30 11:40:08;;;;;;;6.40;4.25;;;33.00;46.50;;;;;;5071891;28;20025;-82
2021/06/30 11:42:36;;;;;;;7.70;4.50;;;32.90;46.30;;;;;;5072109;28;20388;-82
2021/06/30 11:45:02;;;;;;;13.05;6.00;;;32.80;46.50;;;;;;5072839;28;20051;-83
2021/06/30 11:47:28;;;;;;;6.75;4.50;;;32.70;46.80;;;;;;5071771;28;20455;-81
2021/06/30 11:50:02;;;;;;;5.03;4.53;;;32.60;46.90;;;;;;5071055;28;20044;-87
2021/06/30 11:52:29;;;;;;;10.15;6.57;;;32.50;46.80;;;;;;5071632;28;20440;-82
2021/06/30 11:54:56;;;;;;;6.97;4.95;;;32.50;47.00;;;;;;5071782;28;20049;-82
2021/06/30 11:57:22;;;;;;;6.72;5.68;;;32.50;47.00;;;;;;5071854;28;20020;-84
2021/06/30 11:59:48;;;;;;;6.40;5.80;;;32.50;47.30;;;;;;5071728;28;20065;-82
2021/06/30 12:02:13;;;;;;;5.97;4.00;;;32.50;47.80;;;;;;5071808;28;20056;-83
2021/06/30 12:04:40;;;;;;;7.75;4.30;;;32.40;47.70;;;;;;5071427;28;20024;-82
2021/06/30 12:07:05;;;;;;;11.20;4.90;;;32.20;47.70;;;;;;5071234;28;20028;-82
2021/06/30 12:09:33;;;;;;;7.40;4.28;;;32.10;47.90;;;;;;5071541;28;20012;-83
2021/06/30 12:12:04;;;;;;;5.43;4.53;;;32.10;48.00;;;;;;5053280;28;20017;-82
2021/06/30 12:14:47;;;;;;;7.55;4.18;;;32.10;48.30;;;;;;5071033;28;20020;-82
2021/06/30 12:17:16;;;;;;;10.32;6.90;;;32.10;48.40;;;;;;5071464;28;20402;-82
2021/06/30 12:19:51;;;;;;;7.05;5.32;;;32.10;48.30;;;;;;5071456;28;20017;-82
2021/06/30 12:22:28;;;;;;;4.70;4.15;;;32.10;48.00;;;;;;5072328;28;20402;-82
2021/06/30 12:24:58;;;;;;;8.70;4.82;;;32.10;47.50;;;;;;5073125;28;20023;-83
2021/06/30 12:27:46;;;;;;;7.38;4.35;;;32.00;47.60;;;;;;5072794;28;20024;-84
2021/06/30 12:30:21;;;;;;;10.55;4.32;;;32.00;47.50;;;;;;5073493;28;20033;-85
2021/06/30 12:32:56;;;;;;;8.68;5.72;;;32.00;47.40;;;;;;5076080;28;20477;-83
2021/06/30 12:35:30;;;;;;;4.55;4.15;;;32.00;47.50;;;;;;5058148;28;20093;-85
2021/06/30 12:38:03;;;;;;;7.80;4.63;;;32.00;47.00;;;;;;5076844;28;20056;-85
2021/06/30 12:40:29;;;;;;;7.80;3.70;;;31.90;46.60;;;;;;5058753;28;20047;-84
2021/06/30 12:43:04;;;;;;;5.00;3.80;;;31.90;46.20;;;;;;5058498;28;20538;-84
2021/06/30 12:45:53;;;;;;;3.90;3.60;;;31.90;45.30;;;;;;5077180;28;20052;-85
2021/06/30 12:48:21;;;;;;;5.47;3.83;;;31.80;45.10;;;;;;5076276;28;20023;-86
2021/06/30 12:50:52;;;;;;;4.05;3.65;;;31.80;45.30;;;;;;5058569;28;20032;-85
2021/06/30 12:53:23;;;;;;;4.00;3.70;;;31.80;45.40;;;;;;5075721;28;20044;-85